Sigfox identifier Datetime Temperature Humidity SNR
002EB3D5 2019-06-03 16:45:31 17.8 46 10
002EB3D5 2019-06-03 15:38:45 16.9 46 10
002EB3D5 2019-06-03 14:32:00 15.9 46 9.4
002EB3D5 2019-06-03 13:25:12 14.7 44 8.8
002EB3D5 2019-06-03 11:11:38 12.9 42 8
002EB3D5 2019-06-03 08:57:55 12.5 39 8.2
002EB3D5 2019-06-03 07:51:05 13 39 8.3
002EB3D5 2019-06-03 06:44:16 13.9 39 12.6
002EB3D5 2019-06-03 04:30:47 15.6 41 17.6
002EB3D5 2019-06-03 03:24:03 16.4 41 17.7
002EB3D5 2019-06-03 02:17:22 17.1 42 17.9
002EB3D5 2019-06-03 01:10:37 17.5 43 18
002EB3D5 2019-06-03 00:03:58 17.8 43 18.2
002EB3D5 2019-06-02 22:57:12 17.8 43 18.2
002EB3D5 2019-06-02 21:50:29 17.5 43 18.3
002EB3D5 2019-06-02 19:37:06 16.1 42 18.4
002EB3D5 2019-06-02 18:30:18 15.2 40 18.4
002EB3D5 2019-06-02 17:23:34 14.3 39 18.7
002EB3D5 2019-06-02 15:09:55 13.5 37 19.1
002EB3D5 2019-06-02 14:03:08 13.5 37 19.1
002EB3D5 2019-06-02 12:56:18 13.4 36 19.1
002EB3D5 2019-06-02 08:29:07 14 36 19.1
002EB3D5 2019-06-02 05:08:50 15.2 36 20
002EB3D5 2019-06-02 01:48:42 16.9 37 20.4
002EB3D5 2019-06-01 20:15:17 19.2 38 21.4
002EB3D5 2019-06-01 19:08:35 19.1 38 22.5
002EB3D5 2019-06-01 16:55:06 18.8 38 23.4
002EB3D5 2019-06-01 14:41:39 18.2 37 23.9
002EB3D5 2019-06-01 13:34:50 18.2 37 24.5
002EB3D5 2019-06-01 11:21:21 18.4 37 24.8
002EB3D5 2019-06-01 10:14:36 18.6 37 25.2
002EB3D5 2019-06-01 09:07:49 18.8 37 25.6
002EB3D5 2019-06-01 08:01:06 18.8 37 25.5
002EB3D5 2019-06-01 06:54:26 19 37 25.5
002EB3D5 2019-06-01 05:47:44 19 38 25.6
002EB3D5 2019-06-01 04:41:03 19 38 25.8
002EB3D5 2019-06-01 03:34:23 19.2 38 25.9
002EB3D5 2019-06-01 02:27:43 19.2 38 26.3
002EB3D5 2019-06-01 01:20:57 19.5 38 26.7
002EB3D5 2019-06-01 00:14:10 19.7 38 27
002EB3D5 2019-05-31 23:07:25 19.9 39 27.3
002EB3D5 2019-05-31 22:00:43 20.3 39 27.6
002EB3D5 2019-05-31 20:53:59 20.5 40 27.9
002EB3D5 2019-05-31 19:47:17 20.7 40 27.9
002EB3D5 2019-05-31 18:40:35 20.9 41 28.2
002EB3D5 2019-05-31 17:33:57 21.1 41 28.5
002EB3D5 2019-05-31 16:27:15 21.4 42 28.7
002EB3D5 2019-05-31 14:13:57 21.1 42 28.7
002EB3D5 2019-05-31 13:07:17 21 42 28.9
002EB3D5 2019-05-31 12:00:37 20.9 41 28.8
002EB3D5 2019-05-31 10:53:58 20.7 41 28.8
002EB3D5 2019-05-31 09:47:17 20.7 41 28.6
002EB3D5 2019-05-31 08:40:37 20.7 41 28.7
002EB3D5 2019-05-31 07:33:56 20.6 42 28.5
002EB3D5 2019-05-31 06:27:16 20.6 42 28.7
002EB3D5 2019-05-31 05:20:35 20.6 42 28.6
002EB3D5 2019-05-31 04:13:52 20.5 42 28.6
002EB3D5 2019-05-31 03:07:10 20.5 42 28.8
002EB3D5 2019-05-31 02:00:28 20.5 42 28.6
002EB3D5 2019-05-31 00:53:48 20.5 43 28.8
002EB3D5 2019-05-30 23:47:07 20.5 43 28.8
002EB3D5 2019-05-30 22:40:26 20.5 43 29
002EB3D5 2019-05-30 21:33:43 20.5 43 29
002EB3D5 2019-05-30 20:26:57 20.5 43 28.9
002EB3D5 2019-05-30 19:20:13 20.5 43 28.7
002EB3D5 2019-05-30 18:13:30 20.5 44 28.7
002EB3D5 2019-05-30 17:06:47 20.5 44 28.5
002EB3D5 2019-05-30 16:00:03 20.7 44 28.5
002EB3D5 2019-05-30 14:53:21 20.7 44 28.6
002EB3D5 2019-05-30 13:46:42 20.7 45 28.5
002EB3D5 2019-05-30 12:40:02 20.7 45 28.4
002EB3D5 2019-05-30 11:33:22 20.7 45 28.4
002EB3D5 2019-05-30 10:26:40 20.9 45 28.5
002EB3D5 2019-05-30 09:19:58 20.9 45 28.4
002EB3D5 2019-05-30 08:13:19 20.9 46 28.4
002EB3D5 2019-05-30 07:06:39 21 46 28.4
002EB3D5 2019-05-30 05:59:57 21 46 28.5
002EB3D5 2019-05-30 04:53:17 21.1 46 28.5
002EB3D5 2019-05-30 03:46:34 21.1 47 28.6
002EB3D5 2019-05-30 02:39:53 21.1 47 28.5
002EB3D5 2019-05-30 01:33:10 21.3 47 28.8
002EB3D5 2019-05-30 00:26:26 21.3 47 28.7
002EB3D5 2019-05-29 23:19:42 21.6 47 28.7
002EB3D5 2019-05-29 22:12:59 21.5 48 28.7
002EB3D5 2019-05-29 21:06:16 21.7 48 28.8
002EB3D5 2019-05-29 19:59:33 21.8 48 28.8
002EB3D5 2019-05-29 18:52:53 22 48 28.8
002EB3D5 2019-05-29 17:46:15 22.2 49 28.7
002EB3D5 2019-05-29 16:39:37 22.2 49 28.7
002EB3D5 2019-05-29 15:32:59 22.3 50 28.6
002EB3D5 2019-05-29 14:26:20 22.1 47 28.6
002EB3D5 2019-05-29 13:19:42 21.7 48 28.5
002EB3D5 2019-05-29 12:12:57 21.7 49 28.3
002EB3D5 2019-05-29 11:06:11 21.5 52 28.2
002EB3D5 2019-05-29 09:59:24 21.2 52 28.3
002EB3D5 2019-05-29 08:52:39 21.1 51 28.1
002EB3D5 2019-05-29 07:45:54 21.2 49 27.9
002EB3D5 2019-05-29 06:39:10 21.3 48 27.8
002EB3D5 2019-05-29 05:32:25 21.3 48 27.7
002EB3D5 2019-05-29 04:25:42 21.3 48 27.5
002EB3D5 2019-05-29 03:18:57 21.3 48 27.5
002EB3D5 2019-05-29 02:12:17 21.3 48 27.4
002EB3D5 2019-05-29 01:05:38 21.3 48 27.2
002EB3D5 2019-05-28 23:58:56 21.3 48 27
002EB3D5 2019-05-28 22:52:16 21.3 47 26.7
002EB3D5 2019-05-28 21:45:33 21.4 47 26.5
002EB3D5 2019-05-28 20:38:54 21.5 47 26.4
002EB3D5 2019-05-28 19:32:12 21.5 47 26.4
002EB3D5 2019-05-28 18:25:32 21.6 46 26.1
002EB3D5 2019-05-28 17:18:55 21.9 46 25.7
002EB3D5 2019-05-28 16:12:16 22.2 46 25.7
002EB3D5 2019-05-28 15:05:36 22 46 25.9
002EB3D5 2019-05-28 13:58:57 21.9 47 26
002EB3D5 2019-05-28 12:52:17 21.6 47 26.1
002EB3D5 2019-05-28 11:45:37 21.4 47 26
002EB3D5 2019-05-28 10:38:57 21.3 46 26.1
002EB3D5 2019-05-28 09:32:19 21.1 47 26.2
002EB3D5 2019-05-28 08:25:40 21.1 46 26.2
002EB3D5 2019-05-28 07:19:01 21.2 43 26.2
002EB3D5 2019-05-28 06:12:20 21.2 43 26.2
002EB3D5 2019-05-28 05:05:39 21.3 43 26.2
002EB3D5 2019-05-28 03:58:57 21.3 43 26.3
002EB3D5 2019-05-28 02:52:17 21.3 42 26.5
002EB3D5 2019-05-28 01:45:35 21.4 42 26.5
002EB3D5 2019-05-28 00:38:55 21.3 42 26.7
002EB3D5 2019-05-27 23:32:14 21.5 41 26.7
002EB3D5 2019-05-27 22:25:30 21.6 41 26.6
002EB3D5 2019-05-27 21:18:45 21.7 41 26.8
002EB3D5 2019-05-27 20:12:00 21.7 41 27.1
002EB3D5 2019-05-27 19:05:14 21.5 40 27.3
002EB3D5 2019-05-27 17:58:31 21.6 39 27.5
002EB3D5 2019-05-27 16:51:45 21.5 43 27.8
002EB3D5 2019-05-27 15:44:58 21.6 43 27.9
002EB3D5 2019-05-27 14:38:13 21.3 44 28.5
002EB3D5 2019-05-27 13:31:28 21.3 46 30
002EB3D5 2019-05-27 12:24:41 21.3 46 30
002EB3D5 2019-05-27 11:17:53 21.8 50 0